Latest Weather Observations for Moruya Airport

IDN60901

Issued at 11:41 pm EST Monday 26 June 2017 (issued every 10 minutes, with the page automatically refreshed every 10 minutes)

About weather observations | Map of Canberra area stations | Latest observations for Canberra area | Other Formats
Station Details ID: 069148 Name: MORUYA AIRPORT AWS Lat: -35.90 Lon: 150.14 Height: 4.0 m
Data from the previous 72 hours. | See also: Recent months at Moruya Airport
Date/Time
EST
Temp
°C
App
Temp
°C
Dew
Point
°C
Rel
Hum
%
Delta-T
°C
Wind Press
QNH
hPa
Press
MSL
hPa
Rain since
9am
mm
Dir  Spd
km/h
Gust
km/h
Spd
kts
Gust
kts
26/11:30pm 7.3 4.8 4.6 83 1.2 W 7 9 4 5 1025.9 1025.9 0.0
26/11:00pm 8.5 7.2 6.1 85 1.1 WNW 2 7 1 4 1025.9 1025.9 0.0
26/10:30pm 8.6 6.6 6.2 85 1.1 WNW 6 6 3 3 1025.8 1025.8 0.0
26/10:00pm 9.2 8.4 6.3 82 1.3 CALM 0 0 0 0 1025.6 1025.6 0.0
26/09:30pm 9.7 7.1 6.2 79 1.6 WSW 9 13 5 7 1025.4 1025.4 0.0
26/09:00pm 9.2 7.7 6.8 85 1.1 SSE 4 17 2 9 1025.2 1025.2 0.0
26/08:30pm 8.6 6.5 5.9 83 1.2 SSE 6 9 3 5 1024.9 1024.9 0.0
26/08:00pm 9.0 6.7 5.9 81 1.4 SE 7 9 4 5 1024.8 1024.8 0.0
26/07:30pm 8.5 5.9 6.3 86 1.0 SE 9 13 5 7 1024.5 1024.5 0.0
26/07:00pm 7.0 4.6 5.3 89 0.7 ESE 7 9 4 5 1024.1 1024.1 0.0
26/06:30pm 6.8 5.7 5.1 89 0.7 CALM 0 0 0 0 1023.6 1023.6 0.0
26/06:00pm 7.7 6.3 5.7 87 0.9 ESE 2 6 1 3 1023.1 1023.1 0.0
26/05:30pm 8.6 6.9 5.7 82 1.3 ESE 4 6 2 3 1022.9 1022.9 0.0
26/05:00pm 10.1 7.9 5.5 73 2.1 ESE 6 7 3 4 1022.5 1022.5 0.0
26/04:30pm 14.3 11.3 4.3 51 4.6 ESE 9 11 5 6 1022.2 1022.2 0.0
26/04:00pm 15.3 12.0 4.7 49 4.9 E 11 13 6 7 1022.1 1022.1 0.0
26/03:30pm 16.0 12.6 3.8 44 5.6 ENE 11 15 6 8 1021.9 1021.9 0.0
26/03:00pm 16.2 12.5 4.3 45 5.5 NE 13 15 7 8 1021.7 1021.7 0.0
26/02:30pm 16.5 13.2 4.5 45 5.6 NE 11 15 6 8 1021.3 1021.3 0.0
26/02:00pm 16.9 13.8 3.6 41 6.1 ENE 9 13 5 7 1021.0 1021.0 0.0
26/01:30pm 16.4 13.4 4.1 44 5.7 NE 9 15 5 8 1021.0 1021.0 0.0
26/01:00pm 17.0 14.0 1.8 36 6.8 SSE 7 11 4 6 1021.1 1021.1 0.0
26/12:30pm 16.8 14.0 2.0 37 6.6 SSE 6 9 3 5 1021.2 1021.2 0.0
26/12:00pm 16.9 14.2 2.5 38 6.5 S 6 11 3 6 1021.4 1021.4 0.0
26/11:30am 15.7 13.0 3.5 44 5.6 W 7 11 4 6 1021.8 1021.8 0.0
26/11:00am 14.9 12.3 6.0 55 4.2 SSW 9 13 5 7 1021.9 1021.9 0.0
26/10:30am 14.0 11.7 5.6 57 4.0 SSW 7 9 4 5 1021.9 1021.9 0.0
26/10:00am 12.1 10.0 5.9 66 2.9 SSW 6 7 3 4 1021.8 1021.8 0.0
26/09:30am 8.7 6.8 4.9 77 1.7 SSW 4 11 2 6 1021.7 1021.7 0.0
26/09:00am 7.5 6.2 6.1 91 0.6 WNW 2 6 1 3 1021.2 1021.2 0.0
26/08:30am 5.2 3.6 4.3 94 0.4 WNW 2 7 1 4 1020.9 1020.9 0.0
26/08:00am 2.1 -0.8 1.4 95 0.3 WNW 6 9 3 5 1020.5 1020.5 0.0
26/07:30am 0.9 -2.2 0.2 95 0.3 WNW 6 9 3 5 1020.0 1020.0 0.0
26/07:00am 1.2 -1.8 0.6 96 0.2 WNW 6 7 3 4 1019.6 1019.6 0.0
26/06:30am 1.7 -0.1 1.1 96 0.2 CALM 0 0 0 0 1019.2 1019.2 0.0
26/06:00am 2.0 0.2 1.4 96 0.2 CALM 0 6 0 3 1018.7 1018.7 0.0
26/05:30am 1.8 -1.7 1.2 96 0.2 W 9 11 5 6 1018.2 1018.2 0.0
26/05:00am 1.5 -2.1 0.9 96 0.2 WSW 9 11 5 6 1018.1 1018.1 0.0
26/04:30am 1.0 -1.3 0.3 95 0.3 WNW 2 7 1 4 1017.9 1017.9 0.0
26/04:00am 1.5 -1.5 0.8 95 0.3 WSW 6 9 3 5 1017.6 1017.6 0.0
26/03:30am 2.0 -0.5 1.3 95 0.3 SW 4 9 2 5 1017.4 1017.4 0.0
26/03:00am 1.7 -0.9 1.0 95 0.3 NW 4 7 2 4 1017.2 1017.2 0.0
26/02:30am 1.7 -0.9 1.0 95 0.3 W 4 9 2 5 1017.0 1017.0 0.0
26/02:00am 2.2 -0.3 1.5 95 0.3 W 4 7 2 4 1017.0 1017.0 0.0
26/01:30am 1.9 -1.0 1.2 95 0.3 WNW 6 7 3 4 1016.9 1016.9 0.0
26/01:00am 1.7 -1.3 0.8 94 0.3 WNW 6 7 3 4 1016.9 1016.9 0.0
26/12:30am 1.6 -1.4 0.6 93 0.4 WNW 6 9 3 5 1017.0 1017.0 0.0
26/12:00am 2.4 -0.1 1.4 93 0.4 NNW 4 7 2 4 1017.3 1017.3 0.0
 
Date/Time
EST
Temp
°C
App
Temp
°C
Dew
Point
°C
Rel
Hum
%
Delta-T
°C
Wind Press
QNH
hPa
Press
MSL
hPa
Rain since
9am
mm
Dir  Spd
km/h
Gust
km/h
Spd
kts
Gust
kts
25/11:30pm 3.3 0.5 2.3 93 0.4 NNW 6 7 3 4 1017.3 1017.3 0.0
25/11:00pm 4.6 2.1 3.7 94 0.4 N 6 9 3 5 1017.3 1017.3 0.0
25/10:30pm 3.8 1.9 2.9 94 0.4 SW 2 6 1 3 1017.2 1017.2 0.0
25/10:00pm 3.1 0.3 2.2 94 0.4 WSW 6 7 3 4 1017.0 1017.0 0.0
25/09:30pm 3.2 0.2 2.2 93 0.4 W 7 11 4 6 1016.6 1016.6 0.0
25/09:00pm 2.8 -0.1 1.6 92 0.5 WNW 6 9 3 5 1016.6 1016.6 0.0
25/08:30pm 2.9 -0.2 1.6 91 0.5 WNW 7 9 4 5 1015.9 1015.9 0.0
25/08:00pm 4.1 1.4 2.5 89 0.6 WNW 6 11 3 6 1015.9 1015.9 0.0
25/07:30pm 4.4 2.9 2.8 89 0.6 CALM 0 6 0 3 1015.9 1015.9 0.0
25/07:00pm 5.6 2.8 3.3 85 1.0 N 7 13 4 7 1015.6 1015.6 0.0
25/06:30pm 5.5 2.1 4.0 90 0.6 NNW 11 13 6 7 1015.3 1015.3 0.0
25/06:00pm 6.3 3.9 4.3 87 0.9 WSW 6 11 3 6 1015.5 1015.5 0.0
25/05:30pm 6.7 4.3 4.4 85 1.0 NW 6 9 3 5 1015.1 1015.1 0.0
25/05:00pm 8.4 6.1 5.0 79 1.5 NNE 6 9 3 5 1014.8 1014.8 0.0
25/04:30pm 10.9 9.7 4.4 64 2.9 CALM 0 0 0 0 1014.5 1014.5 0.0
25/04:00pm 13.8 11.0 2.1 45 5.1 E 6 9 3 5 1014.5 1014.5 0.0
25/03:30pm 13.8 10.9 2.7 47 4.9 ESE 7 11 4 6 1014.4 1014.4 0.0
25/03:00pm 14.5 11.1 3.9 49 4.8 ENE 11 15 6 8 1014.4 1014.4 0.0
25/02:30pm 14.5 10.9 2.7 45 5.3 E 11 17 6 9 1014.5 1014.5 0.0
25/02:00pm 14.7 11.0 2.6 44 5.4 ENE 11 15 6 8 1014.4 1014.4 0.0
25/01:30pm 14.9 11.5 2.1 42 5.6 ENE 9 13 5 7 1014.7 1014.7 0.0
25/01:00pm 15.3 12.8 1.8 40 5.9 S 4 9 2 5 1015.0 1015.0 0.0
25/12:30pm 14.9 11.9 0.7 38 6.1 NE 6 11 3 6 1015.5 1015.5 0.0
25/12:00pm 14.1 11.0 1.1 41 5.6 SW 7 11 4 6 1016.0 1016.0 0.0
25/11:30am 13.7 10.5 1.0 42 5.4 WSW 7 11 4 6 1016.4 1016.4 0.0
25/11:00am 13.3 10.2 1.6 45 5.0 WNW 7 11 4 6 1016.8 1016.8 0.0
25/10:30am 12.4 8.9 1.4 47 4.7 W 9 15 5 8 1017.1 1017.1 0.0
25/10:00am 11.6 8.7 2.6 54 3.9 SW 7 9 4 5 1017.1 1017.1 0.0
25/09:30am 10.1 6.8 2.2 58 3.3 WSW 9 17 5 9 1017.0 1017.0 0.0
25/09:00am 9.2 5.4 1.9 60 3.0 W 11 17 6 9 1016.9 1016.9 0.0
25/08:30am 7.9 4.4 1.1 62 2.7 W 9 19 5 10 1016.8 1016.8 0.0
25/08:00am 6.9 3.1 1.6 69 2.1 W 11 17 6 9 1016.6 1016.6 0.0
25/07:30am 4.3 1.4 1.7 83 1.0 WSW 6 9 3 5 1016.6 1016.6 0.0
25/07:00am 4.7 1.8 1.7 81 1.2 WSW 6 9 3 5 1016.5 1016.5 0.0
25/06:30am 5.8 2.8 2.1 77 1.5 WNW 7 11 4 6 1016.3 1016.3 0.0
25/06:00am 5.8 2.9 2.6 80 1.3 W 7 13 4 7 1016.1 1016.1 0.0
25/05:30am 5.9 3.4 3.7 86 0.9 WSW 6 7 3 4 1016.1 1016.1 0.0
25/05:00am 6.3 3.7 4.1 86 0.9 WSW 7 11 4 6 1015.8 1015.8 0.0
25/04:30am 5.5 3.0 3.8 89 0.7 WSW 6 7 3 4 1015.8 1015.8 0.0
25/04:00am 5.9 4.6 4.1 88 0.8 CALM 0 0 0 0 1015.9 1015.9 0.0
25/03:30am 7.3 6.2 5.1 86 1.0 CALM 0 4 0 2 1016.1 1016.1 0.0
25/03:00am 7.9 5.2 5.5 85 1.1 WSW 9 13 5 7 1016.3 1016.3 0.0
25/02:30am 8.4 6.5 6.5 88 0.9 WNW 6 7 3 4 1016.5 1016.5 0.0
25/02:00am 8.3 7.4 6.1 86 1.0 CALM 0 0 0 0 1016.4 1016.4 0.0
25/01:30am 8.8 6.9 6.6 86 1.0 WSW 6 9 3 5 1016.5 1016.5 0.0
25/01:00am 9.0 7.9 6.8 86 1.0 W 2 9 1 5 1016.6 1016.6 0.0
25/12:30am 8.9 7.0 6.9 87 0.9 W 6 9 3 5 1016.7 1016.7 0.0
25/12:00am 8.6 6.5 6.7 88 0.9 WSW 7 11 4 6 1016.9 1016.9 0.0
 
Date/Time
EST
Temp
°C
App
Temp
°C
Dew
Point
°C
Rel
Hum
%
Delta-T
°C
Wind Press
QNH
hPa
Press
MSL
hPa
Rain since
9am
mm
Dir  Spd
km/h
Gust
km/h
Spd
kts
Gust
kts
24/11:30pm 9.1 7.7 7.1 87 0.9 WSW 4 6 2 3 1016.9 1016.9 0.0
24/11:00pm 9.5 7.7 7.1 85 1.1 WSW 6 9 3 5 1017.1 1017.1 0.0
24/10:30pm 9.5 8.1 7.4 87 1.0 W 4 7 2 4 1017.2 1017.2 0.0
24/10:00pm 9.4 8.8 7.5 88 0.9 CALM 0 0 0 0 1017.2 1017.2 0.0
24/09:30pm 9.6 9.0 7.4 86 1.0 CALM 0 0 0 0 1017.2 1017.2 0.0
24/09:00pm 9.9 8.9 7.3 84 1.2 W 2 7 1 4 1017.1 1017.1 0.0
24/08:30pm 10.3 8.6 7.5 83 1.3 W 6 7 3 4 1017.1 1017.1 0.0
24/08:00pm 10.2 8.5 7.6 84 1.2 NW 6 6 3 3 1017.2 1017.2 0.0
24/07:30pm 10.5 8.8 7.6 82 1.4 W 6 7 3 4 1017.2 1017.2 0.0
24/07:00pm 10.9 9.0 7.6 80 1.6 WSW 7 9 4 5 1016.9 1016.9 0.0
24/06:30pm 11.0 9.3 7.7 80 1.6 SSE 6 7 3 4 1016.7 1016.7 0.0
24/06:00pm 11.3 10.8 7.8 79 1.7 CALM 0 0 0 0 1016.4 1016.4 0.0
24/05:30pm 11.8 10.0 7.3 74 2.2 SSE 6 7 3 4 1016.2 1016.2 0.0
24/05:00pm 12.9 10.7 6.0 63 3.3 SSE 7 9 4 5 1015.9 1015.9 0.0
24/04:30pm 13.5 10.1 6.1 61 3.5 SSE 13 17 7 9 1015.7 1015.7 0.0
24/04:00pm 13.7 10.3 6.1 60 3.6 SSE 13 20 7 11 1015.5 1015.5 0.0
24/03:30pm 13.9 10.4 5.5 57 4.0 SSE 13 20 7 11 1015.3 1015.3 0.0
24/03:00pm 14.1 9.9 5.7 57 4.0 SSE 17 24 9 13 1015.1 1015.1 0.0
24/02:30pm 14.2 9.6 5.8 57 4.0 SSE 19 24 10 13 1014.9 1014.9 0.0
24/02:00pm 14.6 10.4 5.9 56 4.1 SE 17 24 9 13 1014.8 1014.8 0.0
24/01:30pm 15.3 11.0 6.8 57 4.2 SE 19 26 10 14 1014.8 1014.8 0.0
24/01:00pm 15.0 10.5 6.0 55 4.3 SSE 19 26 10 14 1015.1 1015.1 0.0
24/12:30pm 15.6 11.4 5.5 51 4.8 SSE 17 20 9 11 1015.2 1015.2 0.0
24/12:00pm 15.5 11.9 4.8 49 5.0 SE 13 17 7 9 1015.3 1015.3 0.0
24/11:30am 15.6 12.8 5.2 50 4.9 SSE 9 13 5 7 1015.6 1015.6 0.0
24/11:00am 15.1 12.3 6.9 58 4.0 SSE 11 17 6 9 1016.0 1016.0 0.0
24/10:30am 14.5 11.6 6.3 58 3.9 SW 11 15 6 8 1016.2 1016.2 0.0
24/10:00am 14.2 10.8 5.8 57 4.0 SW 13 19 7 10 1016.3 1016.3 0.0
24/09:30am 13.1 9.9 5.0 58 3.7 WNW 11 15 6 8 1015.8 1015.8 0.0
24/09:00am 11.2 8.8 5.1 66 2.8 WSW 7 13 4 7 1015.6 1015.6 0.0
24/08:30am 10.0 7.6 5.2 72 2.2 W 7 11 4 6 1015.2 1015.2 0.0
24/08:00am 7.3 4.3 4.3 81 1.3 WSW 9 13 5 7 1014.7 1014.7 0.0
24/07:30am 5.9 2.8 3.6 85 1.0 WSW 9 11 5 6 1014.3 1014.3 0.0
24/07:00am 4.6 1.4 2.9 89 0.7 WSW 9 15 5 8 1013.9 1013.9 0.0
24/06:30am 4.8 1.4 3.8 93 0.4 SW 11 17 6 9 1013.3 1013.3 0.0
24/06:00am 3.8 1.1 2.6 92 0.5 WNW 6 7 3 4 1012.8 1012.8 0.0
24/05:30am 4.2 1.3 2.6 89 0.6 WSW 7 11 4 6 1012.7 1012.7 0.0
24/05:00am 3.8 0.8 2.2 89 0.6 WSW 7 9 4 5 1012.4 1012.4 0.0
24/04:30am 5.7 2.9 3.0 83 1.1 WSW 7 9 4 5 1012.2 1012.2 0.0
24/04:00am 6.0 2.7 4.6 91 0.6 WNW 11 13 6 7 1012.1 1012.1 0.0
24/03:30am 3.0 0.2 2.3 95 0.3 SW 6 9 3 5 1012.2 1012.2 0.0
24/03:00am 3.4 0.5 2.7 95 0.3 WSW 7 11 4 6 1012.4 1012.4 0.0
24/02:30am 3.2 1.2 2.5 95 0.3 W 2 7 1 4 1012.4 1012.4 0.0
24/02:00am 2.5 -0.4 1.5 93 0.4 WNW 6 9 3 5 1012.0 1012.0 0.0
24/01:30am 3.4 0.5 2.4 93 0.4 WNW 7 9 4 5 1012.2 1012.2 0.0
24/01:00am 4.1 1.5 3.1 93 0.4 SSW 6 9 3 5 1012.2 1012.2 0.0
24/12:30am 3.7 1.7 2.4 91 0.5 SSW 2 6 1 3 1012.6 1012.6 0.0
24/12:00am 4.0 1.6 2.2 88 0.7 W 4 11 2 6 1012.4 1012.4 0.0

Latest Capital City Observations: Canberra | Sydney | Melbourne | Brisbane | Adelaide | Perth | Hobart | Darwin

Other Formats:

Comma delimited format used in spreadsheet applications
http://www.bom.gov.au/fwo/IDN60903/IDN60903.95937.axf

JavaScript Object Notation format (JSON) in row-major order
http://www.bom.gov.au/fwo/IDN60903/IDN60903.95937.json